Wan Hai 510 — 9VJJ8 — position and weather

sailwx.info

Track history (hours):
 
Tides and Currents Weather Stations Pressure Air Temp Water Temp Dewpoint Dewpoint Depression Visibility Wind Speed Wind Dir Waves Ship Positions

Wan Hai 510

Last reported at 2016-May-25 20:33 UTC. Time now 2016-May-26 00:36 UTC.
Position N 22°07' E 114°19'.

Length 269 m; draft 12 m.

Type: Ship. MMSI: 565741000.

Date/timePositionNaut miles runAvg speedWind from/ knotsBaromVisibWave heightAir tempDewpointWater temp
2016-May-25 20:33N 22°07' E 114°19'1511.3
2016-May-25 19:11N 22°16' E 114°06'1110.2
2016-May-25 18:04N 22°21' E 113°55'4 7.8
2016-May-25 17:33N 22°25' E 113°53'2 2.0
2016-May-25 16:27N 22°27' E 113°53'0 0.0
2016-May-25 15:33N 22°27' E 113°53'0 0.0
2016-May-25 14:33N 22°27' E 113°53'0 0.0
2016-May-25 13:27N 22°27' E 113°53'0 0.0
2016-May-25 12:33N 22°27' E 113°53'0 0.0
2016-May-25 11:27N 22°27' E 113°53'0 0.0
2016-May-25 10:33N 22°27' E 113°53'0 0.0
2016-May-25 09:27N 22°27' E 113°53'0 0.0
2016-May-25 08:33N 22°27' E 113°53'3 3.1
2016-May-25 07:33N 22°24' E 113°54'11 9.9
2016-May-25 06:26N 22°20' E 114°05'2 2.5
2016-May-25 05:28N 22°20' E 114°07'0 0.0
2016-May-25 04:31N 22°20' E 114°07'0 0.0
2016-May-25 03:31N 22°20' E 114°07'0 0.0
2016-May-25 02:28N 22°20' E 114°07'0 0.0
2016-May-25 01:31N 22°20' E 114°07'0 0.0
2016-May-24 23:13N 22°20' E 114°07'0 0.0
2016-May-24 22:31N 22°20' E 114°07'0 0.0
2016-May-24 21:31N 22°20' E 114°07'0 0.0
2016-May-24 20:31N 22°20' E 114°07'0 0.0
2016-May-24 19:31N 22°20' E 114°07'0 0.0
2016-May-24 18:33N 22°20' E 114°07'3 3.1
2016-May-24 17:33N 22°17' E 114°06'10 9.4
2016-May-24 16:31N 22°10' E 114°13'1010.8
2016-May-24 15:33N 22°07' E 114°23'308 9.5
2016-May-23 07:10N 22°32' E 119°55'914.6
2016-May-23 06:33N 22°33' E 120°05'1312.2
2016-May-23 05:32N 22°33' E 120°18'2 1.4
2016-May-23 04:25N 22°35' E 120°18'0 0.0
2016-May-23 03:31N 22°35' E 120°18'0 0.1
2016-May-23 02:31N 22°35' E 120°18'0 0.0
2016-May-23 01:25N 22°35' E 120°18'0 0.0
2016-May-22 18:25N 22°35' E 120°18'0 0.1
2016-May-22 17:31N 22°35' E 120°18'0 0.0
2016-May-22 16:31N 22°35' E 120°18'0 0.0
2016-May-22 15:13N 22°35' E 120°18'0 0.0
2016-May-22 14:31N 22°35' E 120°18'0 0.0
2016-May-22 13:31N 22°35' E 120°18'0 0.0
2016-May-22 12:31N 22°35' E 120°18'0 0.1
2016-May-22 11:31N 22°35' E 120°18'0 0.1
2016-May-22 10:31N 22°35' E 120°18'0 0.1
2016-May-22 09:31N 22°35' E 120°18'0 0.0
2016-May-22 08:31N 22°35' E 120°18'0 0.0
2016-May-22 07:31N 22°35' E 120°18'0 0.0
2016-May-22 06:31N 22°35' E 120°18'0 0.1
2016-May-22 05:34N 22°35' E 120°18'4 3.9
2016-May-22 04:33N 22°32' E 120°15'5 4.7
2016-May-22 03:33N 22°29' E 120°11'1 0.6
2016-May-22 02:33N 22°29' E 120°11'1 0.7
2016-May-22 01:33N 22°28' E 120°11'0 0.3
2016-May-22 00:33N 22°28' E 120°11'0 0.4
2016-May-21 23:15N 22°28' E 120°11'  
2016-May-18 01:11N 01°15' E 104°03'13 7.9
2016-May-17 23:31N 01°16' E 103°50'0 0.0
2016-May-17 22:31N 01°16' E 103°50'0 0.0
2016-May-17 21:31N 01°16' E 103°50'0 0.0
2016-May-17 20:31N 01°16' E 103°50'0 0.0
2016-May-17 19:31N 01°16' E 103°50'0 0.0
2016-May-17 18:31N 01°16' E 103°50'0 0.0
2016-May-17 17:31N 01°16' E 103°50'0 0.0
2016-May-17 16:31N 01°16' E 103°50'0 0.0
2016-May-17 15:31N 01°16' E 103°50'0 0.0
2016-May-17 14:31N 01°16' E 103°50'0 0.0
2016-May-17 13:31N 01°16' E 103°50'3 3.5
2016-May-17 12:33N 01°14' E 103°53'4 4.1
2016-May-17 11:33N 01°11' E 103°50'1110.8
2016-May-17 10:33N 01°04' E 103°42'  
Track history (hours):
 
Tides and Currents Weather Stations Pressure Air Temp Water Temp Dewpoint Dewpoint Depression Visibility Wind Speed Wind Dir Waves Ship Positions

Wan Hai 510

Last reported at 2016-May-25 20:33 UTC. Time now 2016-May-26 00:36 UTC.
Position N 22°07' E 114°19'.

Length 269 m; draft 12 m.

Type: Ship. MMSI: 565741000.

Date/timePositionNaut miles runAvg speedWind from/ knotsBaromVisibWave heightAir tempDewpointWater temp
2016-May-25 20:33N 22°07' E 114°19'1511.3
2016-May-25 19:11N 22°16' E 114°06'1110.2
2016-May-25 18:04N 22°21' E 113°55'4 7.8
2016-May-25 17:33N 22°25' E 113°53'2 2.0
2016-May-25 16:27N 22°27' E 113°53'0 0.0
2016-May-25 15:33N 22°27' E 113°53'0 0.0
2016-May-25 14:33N 22°27' E 113°53'0 0.0
2016-May-25 13:27N 22°27' E 113°53'0 0.0
2016-May-25 12:33N 22°27' E 113°53'0 0.0
2016-May-25 11:27N 22°27' E 113°53'0 0.0
2016-May-25 10:33N 22°27' E 113°53'0 0.0
2016-May-25 09:27N 22°27' E 113°53'0 0.0
2016-May-25 08:33N 22°27' E 113°53'3 3.1
2016-May-25 07:33N 22°24' E 113°54'11 9.9
2016-May-25 06:26N 22°20' E 114°05'2 2.5
2016-May-25 05:28N 22°20' E 114°07'0 0.0
2016-May-25 04:31N 22°20' E 114°07'0 0.0
2016-May-25 03:31N 22°20' E 114°07'0 0.0
2016-May-25 02:28N 22°20' E 114°07'0 0.0
2016-May-25 01:31N 22°20' E 114°07'0 0.0
2016-May-24 23:13N 22°20' E 114°07'0 0.0
2016-May-24 22:31N 22°20' E 114°07'0 0.0
2016-May-24 21:31N 22°20' E 114°07'0 0.0
2016-May-24 20:31N 22°20' E 114°07'0 0.0
2016-May-24 19:31N 22°20' E 114°07'0 0.0
2016-May-24 18:33N 22°20' E 114°07'3 3.1
2016-May-24 17:33N 22°17' E 114°06'10 9.4
2016-May-24 16:31N 22°10' E 114°13'1010.8
2016-May-24 15:33N 22°07' E 114°23'308 9.5
2016-May-23 07:10N 22°32' E 119°55'914.6
2016-May-23 06:33N 22°33' E 120°05'1312.2
2016-May-23 05:32N 22°33' E 120°18'2 1.4
2016-May-23 04:25N 22°35' E 120°18'0 0.0
2016-May-23 03:31N 22°35' E 120°18'0 0.1
2016-May-23 02:31N 22°35' E 120°18'0 0.0
2016-May-23 01:25N 22°35' E 120°18'0 0.0
2016-May-22 18:25N 22°35' E 120°18'0 0.1
2016-May-22 17:31N 22°35' E 120°18'0 0.0
2016-May-22 16:31N 22°35' E 120°18'0 0.0
2016-May-22 15:13N 22°35' E 120°18'0 0.0
2016-May-22 14:31N 22°35' E 120°18'0 0.0
2016-May-22 13:31N 22°35' E 120°18'0 0.0
2016-May-22 12:31N 22°35' E 120°18'0 0.1
2016-May-22 11:31N 22°35' E 120°18'0 0.1
2016-May-22 10:31N 22°35' E 120°18'0 0.1
2016-May-22 09:31N 22°35' E 120°18'0 0.0
2016-May-22 08:31N 22°35' E 120°18'0 0.0
2016-May-22 07:31N 22°35' E 120°18'0 0.0
2016-May-22 06:31N 22°35' E 120°18'0 0.1
2016-May-22 05:34N 22°35' E 120°18'4 3.9
2016-May-22 04:33N 22°32' E 120°15'5 4.7
2016-May-22 03:33N 22°29' E 120°11'1 0.6
2016-May-22 02:33N 22°29' E 120°11'1 0.7
2016-May-22 01:33N 22°28' E 120°11'0 0.3
2016-May-22 00:33N 22°28' E 120°11'0 0.4
2016-May-21 23:15N 22°28' E 120°11'  
2016-May-18 01:11N 01°15' E 104°03'13 7.9
2016-May-17 23:31N 01°16' E 103°50'0 0.0
2016-May-17 22:31N 01°16' E 103°50'0 0.0
2016-May-17 21:31N 01°16' E 103°50'0 0.0
2016-May-17 20:31N 01°16' E 103°50'0 0.0
2016-May-17 19:31N 01°16' E 103°50'0 0.0
2016-May-17 18:31N 01°16' E 103°50'0 0.0
2016-May-17 17:31N 01°16' E 103°50'0 0.0
2016-May-17 16:31N 01°16' E 103°50'0 0.0
2016-May-17 15:31N 01°16' E 103°50'0 0.0
2016-May-17 14:31N 01°16' E 103°50'0 0.0
2016-May-17 13:31N 01°16' E 103°50'3 3.5
2016-May-17 12:33N 01°14' E 103°53'4 4.1
2016-May-17 11:33N 01°11' E 103°50'1110.8
2016-May-17 10:33N 01°04' E 103°42'  

Dump ship's entire track history